Time;durP1;ratioP1;P1;durP2;ratioP2;P2;SDS_P1;SDS_P2;PMS_P1;PMS_P2;Temp;Humidity;BMP_temperature;BMP_pressure;BME280_temperature;BME280_humidity;BME280_pressure;Samples;Min_cycle;Max_cycle;Signal;HPM_P1;HPM_P2
2021/01/18 00:01:36;;;;;;;46.88;23.45;;;-0.20;99.90;;;;;;5028582;28;20116;-44
2021/01/18 00:04:02;;;;;;;38.00;20.75;;;-0.30;99.90;;;;;;5028598;28;20013;-46
2021/01/18 00:06:27;;;;;;;35.85;19.13;;;-0.20;99.90;;;;;;5028161;28;20371;-44
2021/01/18 00:08:53;;;;;;;36.90;20.20;;;-0.20;99.90;;;;;;5028805;28;20437;-44
2021/01/18 00:11:21;;;;;;;47.75;24.23;;;-0.20;99.90;;;;;;5029041;28;20037;-44
2021/01/18 00:13:49;;;;;;;46.72;21.98;;;-0.20;99.90;;;;;;5027175;28;20079;-43
2021/01/18 00:16:16;;;;;;;40.90;22.17;;;-0.20;99.90;;;;;;5026598;28;20025;-44
2021/01/18 00:18:41;;;;;;;45.03;23.08;;;-0.20;99.90;;;;;;5028255;28;20181;-44
2021/01/18 00:21:07;;;;;;;41.67;21.70;;;-0.20;99.90;;;;;;5028338;28;20028;-43
2021/01/18 00:23:35;;;;;;;47.33;23.33;;;-0.20;99.90;;;;;;5028313;28;20021;-45
2021/01/18 00:26:01;;;;;;;42.53;22.70;;;-0.20;99.90;;;;;;5027459;28;20022;-45
2021/01/18 00:28:26;;;;;;;47.42;24.40;;;-0.20;99.90;;;;;;5028057;28;20025;-45
2021/01/18 00:30:52;;;;;;;49.67;25.05;;;-0.10;99.90;;;;;;5031932;28;20463;-45
2021/01/18 00:33:17;;;;;;;50.13;24.10;;;-0.10;99.90;;;;;;5032386;28;20096;-47
2021/01/18 00:35:43;;;;;;;49.58;25.02;;;-0.20;99.90;;;;;;5031769;28;20067;-48
2021/01/18 00:38:08;;;;;;;46.47;22.85;;;-0.10;99.90;;;;;;5032354;28;20083;-44
2021/01/18 00:40:34;;;;;;;44.92;22.52;;;-0.10;99.90;;;;;;5030935;28;20044;-44
2021/01/18 00:42:59;;;;;;;49.80;24.67;;;0.00;99.90;;;;;;5032366;28;20024;-45
2021/01/18 00:45:26;;;;;;;54.45;25.33;;;0.00;99.90;;;;;;5031487;28;20037;-45
2021/01/18 00:47:56;;;;;;;56.47;26.52;;;0.00;99.90;;;;;;5032475;28;20025;-45
2021/01/18 00:50:24;;;;;;;65.00;29.35;;;0.00;99.90;;;;;;5030662;28;20018;-45
2021/01/18 00:52:52;;;;;;;65.25;30.52;;;0.00;99.90;;;;;;5031664;28;20510;-44
2021/01/18 00:55:20;;;;;;;64.13;31.02;;;0.00;99.90;;;;;;5031357;28;20407;-44
2021/01/18 00:57:47;;;;;;;57.95;28.83;;;0.10;99.90;;;;;;5029669;28;20029;-47
2021/01/18 01:00:23;;;;;;;54.63;28.42;;;0.10;99.90;;;;;;5031772;28;20029;-44
2021/01/18 01:02:51;;;;;;;58.90;26.95;;;0.00;99.90;;;;;;5032026;28;20037;-46
2021/01/18 01:05:19;;;;;;;61.08;30.27;;;0.10;99.90;;;;;;5031357;28;20041;-44
2021/01/18 01:07:46;;;;;;;57.58;26.70;;;0.10;99.90;;;;;;5031627;28;20017;-45
2021/01/18 01:10:21;;;;;;;57.78;29.23;;;0.10;99.90;;;;;;5031870;28;20025;-45
2021/01/18 01:12:46;;;;;;;57.30;28.13;;;0.10;99.90;;;;;;5031779;28;20599;-46
2021/01/18 01:15:12;;;;;;;63.80;28.67;;;0.10;99.90;;;;;;5031279;28;20040;-46
2021/01/18 01:17:42;;;;;;;70.45;33.00;;;0.10;99.90;;;;;;5030123;28;20035;-44
2021/01/18 01:20:12;;;;;;;71.35;30.92;;;0.10;99.90;;;;;;5031268;28;20495;-46
2021/01/18 01:22:39;;;;;;;70.30;32.65;;;0.10;99.90;;;;;;5031205;28;20034;-45
2021/01/18 01:25:06;;;;;;;76.00;32.63;;;0.00;99.90;;;;;;5030905;28;20033;-44
2021/01/18 01:27:31;;;;;;;70.32;33.22;;;0.10;99.90;;;;;;5030189;28;20025;-44
2021/01/18 01:29:57;;;;;;;66.97;30.95;;;0.10;99.90;;;;;;5031156;28;20378;-45
2021/01/18 01:32:22;;;;;;;72.93;34.83;;;0.00;99.90;;;;;;5031180;28;20033;-44
2021/01/18 01:34:48;;;;;;;70.63;32.25;;;0.10;99.90;;;;;;5030537;28;20029;-45
2021/01/18 01:37:13;;;;;;;79.95;34.33;;;0.10;99.90;;;;;;5031283;28;20033;-47
2021/01/18 01:39:39;;;;;;;70.20;31.70;;;0.00;99.90;;;;;;5030992;28;20446;-44
2021/01/18 01:42:04;;;;;;;79.30;34.15;;;0.00;99.90;;;;;;5029937;28;20029;-44
2021/01/18 01:44:30;;;;;;;82.15;36.50;;;0.00;99.90;;;;;;5030161;28;20026;-45
2021/01/18 01:47:01;;;;;;;79.82;34.22;;;0.00;99.90;;;;;;5030912;28;20018;-45
2021/01/18 01:49:26;;;;;;;80.25;34.22;;;0.00;99.90;;;;;;5031236;28;20182;-45
2021/01/18 01:51:52;;;;;;;75.75;32.55;;;0.00;99.90;;;;;;5031050;28;20374;-45
2021/01/18 01:54:18;;;;;;;75.07;35.25;;;0.00;99.90;;;;;;5030749;28;20067;-44
2021/01/18 01:56:45;;;;;;;82.05;37.33;;;0.10;99.90;;;;;;5029754;28;20029;-45
2021/01/18 01:59:10;;;;;;;77.88;34.95;;;0.10;99.90;;;;;;5030714;28;20418;-44
2021/01/18 02:01:36;;;;;;;72.10;31.42;;;0.10;99.90;;;;;;5030624;28;20067;-45
2021/01/18 02:04:02;;;;;;;73.63;33.05;;;0.20;99.90;;;;;;5030641;28;20029;-45
2021/01/18 02:06:28;;;;;;;77.47;33.22;;;0.20;99.90;;;;;;5029890;28;20099;-46
2021/01/18 02:08:53;;;;;;;68.00;32.92;;;0.30;99.90;;;;;;5030497;28;20064;-45
2021/01/18 02:11:19;;;;;;;69.35;32.15;;;0.30;99.90;;;;;;5029057;28;20158;-45
2021/01/18 02:14:20;;;;;;;79.82;36.22;;;0.40;99.90;;;;;;5028757;28;20033;-44
2021/01/18 02:17:12;;;;;;;78.45;34.97;;;0.40;99.90;;;;;;5029865;28;20271;-44
2021/01/18 02:20:28;;;;;;;72.22;32.33;;;0.40;99.90;;;;;;5030525;28;20133;-44
2021/01/18 02:23:21;;;;;;;73.80;33.17;;;0.40;99.90;;;;;;5047681;28;20029;-45
2021/01/18 02:25:58;;;;;;;74.78;33.08;;;0.40;99.90;;;;;;5046894;28;20111;-44
2021/01/18 02:28:29;;;;;;;65.93;31.95;;;0.50;99.90;;;;;;5033167;28;20627;-47
2021/01/18 02:31:21;;;;;;;65.75;31.27;;;0.50;99.90;;;;;;5029246;28;20032;-43
2021/01/18 02:34:27;;;;;;;69.38;32.78;;;0.50;99.90;;;;;;5028591;28;20105;-45
2021/01/18 02:37:11;;;;;;;67.40;32.05;;;0.50;99.90;;;;;;5029842;28;20053;-47
2021/01/18 02:40:08;;;;;;;68.07;31.95;;;0.50;99.90;;;;;;5029825;28;20113;-45
2021/01/18 02:43:01;;;;;;;70.88;32.20;;;0.60;99.90;;;;;;5029608;28;20044;-46
2021/01/18 02:45:27;;;;;;;64.60;29.50;;;0.60;99.90;;;;;;5028999;28;20433;-44
2021/01/18 02:47:54;;;;;;;66.78;32.53;;;0.60;99.90;;;;;;5029732;28;20100;-44
2021/01/18 02:50:21;;;;;;;59.50;27.77;;;0.70;99.90;;;;;;5029683;28;20024;-44
2021/01/18 02:52:46;;;;;;;67.72;31.38;;;0.70;99.90;;;;;;5029715;28;20029;-45
2021/01/18 02:55:16;;;;;;;62.63;30.13;;;0.80;99.90;;;;;;5028297;28;20030;-45
2021/01/18 02:57:44;;;;;;;61.83;28.13;;;0.80;99.90;;;;;;5027687;28;20029;-44
2021/01/18 03:00:15;;;;;;;58.05;28.13;;;0.80;99.90;;;;;;5027897;28;20083;-44
2021/01/18 03:03:03;;;;;;;69.18;30.48;;;0.90;99.90;;;;;;5028325;28;20159;-45
2021/01/18 03:05:41;;;;;;;69.38;31.45;;;0.90;99.90;;;;;;5027668;28;20018;-44
2021/01/18 03:08:15;;;;;;;68.75;30.05;;;1.00;99.90;;;;;;5028400;28;20045;-45
2021/01/18 03:11:01;;;;;;;76.38;31.90;;;1.00;99.90;;;;;;5027438;28;20013;-44
2021/01/18 03:13:33;;;;;;;89.63;34.58;;;1.00;99.90;;;;;;5027614;28;20021;-45
2021/01/18 03:16:32;;;;;;;82.53;34.30;;;1.10;99.90;;;;;;5027912;28;20021;-45
2021/01/18 03:19:02;;;;;;;82.88;32.78;;;1.10;99.90;;;;;;5026676;28;20062;-45
2021/01/18 03:21:28;;;;;;;92.73;34.60;;;1.10;99.90;;;;;;5011408;28;20053;-48
2021/01/18 03:23:53;;;;;;;94.38;37.65;;;1.10;99.90;;;;;;5028568;28;20033;-44
2021/01/18 03:26:24;;;;;;;94.57;36.30;;;1.20;99.90;;;;;;5027340;28;20495;-46
2021/01/18 03:28:51;;;;;;;;;;;1.20;99.90;;;;;;5028476;28;20018;-44
2021/01/18 03:31:16;;;;;;;99.53;35.85;;;1.10;99.90;;;;;;5028320;28;19905;-45
2021/01/18 03:33:43;;;;;;;92.03;35.88;;;1.10;99.90;;;;;;5028448;28;20020;-44
2021/01/18 03:36:09;;;;;;;106.90;39.67;;;1.20;99.90;;;;;;5028175;28;20168;-44
2021/01/18 03:38:34;;;;;;;92.32;35.67;;;1.20;99.90;;;;;;5028894;28;20425;-46
2021/01/18 03:41:02;;;;;;;95.80;37.65;;;1.20;99.90;;;;;;5028999;28;20104;-44
2021/01/18 03:43:27;;;;;;;92.97;36.58;;;1.30;99.90;;;;;;5028693;28;20030;-44
2021/01/18 03:45:53;;;;;;;102.78;36.80;;;1.30;99.90;;;;;;5027922;28;20028;-44
2021/01/18 03:48:18;;;;;;;90.38;35.28;;;1.30;99.90;;;;;;5029027;28;20040;-44
2021/01/18 03:50:44;;;;;;;95.07;36.42;;;1.30;99.90;;;;;;5028712;28;20033;-45
2021/01/18 03:53:11;;;;;;;85.03;34.60;;;1.40;99.90;;;;;;5028412;28;20031;-45
2021/01/18 03:55:38;;;;;;;98.40;37.28;;;1.40;99.90;;;;;;5026391;28;20052;-44
2021/01/18 03:58:03;;;;;;;89.25;33.35;;;1.40;99.90;;;;;;5027561;28;20483;-44
2021/01/18 04:00:31;;;;;;;95.25;34.15;;;1.40;99.90;;;;;;5028563;28;20048;-43
2021/01/18 04:02:57;;;;;;;104.82;34.03;;;1.40;99.90;;;;;;5028697;28;20029;-44
2021/01/18 04:05:23;;;;;;;97.95;34.22;;;1.50;99.90;;;;;;5027770;28;20537;-44
2021/01/18 04:07:50;;;;;;;91.95;35.35;;;1.40;99.90;;;;;;5028905;28;20025;-43
2021/01/18 04:10:18;;;;;;;96.18;36.15;;;1.50;99.90;;;;;;5028816;28;20094;-44
2021/01/18 04:12:46;;;;;;;96.13;35.55;;;1.50;99.90;;;;;;5028293;28;20021;-44
2021/01/18 04:15:14;;;;;;;89.80;33.08;;;1.50;99.90;;;;;;5027745;28;20037;-45
2021/01/18 04:17:41;;;;;;;92.40;34.25;;;1.50;99.90;;;;;;5028426;28;20394;-44
2021/01/18 04:20:08;;;;;;;96.93;35.08;;;1.50;99.90;;;;;;5028609;28;20029;-44
2021/01/18 04:22:34;;;;;;;100.82;34.30;;;1.50;99.90;;;;;;5028344;28;20029;-45
2021/01/18 04:24:59;;;;;;;93.20;34.08;;;1.50;99.90;;;;;;5027852;28;20056;-44
2021/01/18 04:27:25;;;;;;;98.93;32.95;;;1.50;99.90;;;;;;5027946;28;20132;-46
2021/01/18 04:29:50;;;;;;;95.93;33.58;;;1.60;99.90;;;;;;5028162;28;20026;-46
2021/01/18 04:32:15;;;;;;;93.68;32.10;;;1.60;99.90;;;;;;5028432;28;20013;-44
2021/01/18 04:34:42;;;;;;;94.40;34.17;;;1.60;99.90;;;;;;5027716;28;20548;-44
2021/01/18 04:37:07;;;;;;;94.75;32.75;;;1.60;99.90;;;;;;5028288;28;20108;-46
2021/01/18 04:39:33;;;;;;;108.97;33.13;;;1.60;99.90;;;;;;5028191;28;20132;-46
2021/01/18 04:41:59;;;;;;;97.28;33.53;;;1.60;99.90;;;;;;5027877;28;20053;-45
2021/01/18 04:44:26;;;;;;;92.40;30.77;;;1.70;99.90;;;;;;5027696;28;20521;-44
2021/01/18 04:46:53;;;;;;;88.85;32.22;;;1.70;99.90;;;;;;5028309;28;20184;-45
2021/01/18 04:49:20;;;;;;;100.93;31.75;;;1.70;99.90;;;;;;5026792;28;20026;-44
2021/01/18 04:51:54;;;;;;;85.05;29.55;;;1.80;99.90;;;;;;5027942;28;20062;-46
2021/01/18 04:54:26;;;;;;;77.68;30.17;;;1.80;99.90;;;;;;5027670;28;20340;-46
2021/01/18 04:57:31;;;;;;;89.85;31.48;;;1.80;99.90;;;;;;5027024;28;20251;-46
2021/01/18 05:00:01;;;;;;;93.90;31.05;;;1.80;99.90;;;;;;5045224;28;20065;-47
2021/01/18 05:02:38;;;;;;;86.10;28.98;;;1.80;99.90;;;;;;5027536;28;20061;-43
2021/01/18 05:05:13;;;;;;;91.47;28.55;;;1.90;99.90;;;;;;5027175;28;20022;-43
2021/01/18 05:08:04;;;;;;;81.47;29.00;;;1.90;99.90;;;;;;5026537;28;20088;-45
2021/01/18 05:10:31;;;;;;;89.35;30.17;;;1.90;99.90;;;;;;5027981;28;20134;-45
2021/01/18 05:13:00;;;;;;;93.50;32.42;;;1.90;99.90;;;;;;5027837;28;20018;-43
2021/01/18 05:15:25;;;;;;;90.90;31.80;;;1.90;99.90;;;;;;5027364;28;20330;-43
2021/01/18 05:17:58;;;;;;;82.93;28.58;;;2.00;99.90;;;;;;5031156;28;20495;-44
2021/01/18 05:20:23;;;;;;;95.97;30.67;;;2.00;99.90;;;;;;5031666;28;20682;-44
2021/01/18 05:22:56;;;;;;;103.72;33.40;;;2.00;99.90;;;;;;5031609;28;20120;-44
2021/01/18 05:25:23;;;;;;;89.70;30.95;;;2.00;99.90;;;;;;5031034;28;20403;-43
2021/01/18 05:28:09;;;;;;;101.85;31.95;;;2.00;99.90;;;;;;5030400;28;20261;-45
2021/01/18 05:30:41;;;;;;;89.18;30.48;;;2.10;99.90;;;;;;5029939;28;20501;-45
2021/01/18 05:33:11;;;;;;;83.75;29.45;;;2.10;99.90;;;;;;5031297;28;20033;-47
2021/01/18 05:35:48;;;;;;;87.07;30.03;;;2.10;99.90;;;;;;5030701;28;20032;-44
2021/01/18 05:38:14;;;;;;;93.22;29.15;;;2.10;99.90;;;;;;5030267;28;20030;-44
2021/01/18 05:40:50;;;;;;;83.25;28.02;;;2.10;99.90;;;;;;5029117;28;20104;-48
2021/01/18 05:43:18;;;;;;;88.75;30.00;;;2.20;99.90;;;;;;5011086;28;20113;-46
2021/01/18 05:45:46;;;;;;;83.82;30.52;;;2.20;99.90;;;;;;5010515;28;20034;-48
2021/01/18 05:48:13;;;;;;;86.10;28.63;;;2.20;99.90;;;;;;5011179;28;20029;-45
2021/01/18 05:50:40;;;;;;;78.05;27.02;;;2.20;99.90;;;;;;5011453;28;20369;-47
2021/01/18 05:53:29;;;;;;;85.55;28.65;;;2.20;99.90;;;;;;5011076;28;20556;-44
2021/01/18 05:55:55;;;;;;;76.07;28.65;;;2.30;99.90;;;;;;5010382;28;20026;-44
2021/01/18 05:58:31;;;;;;;75.40;26.58;;;2.30;99.90;;;;;;5030354;28;20181;-44
2021/01/18 06:00:58;;;;;;;69.82;25.92;;;2.40;99.90;;;;;;5032284;28;20022;-47
2021/01/18 06:03:31;;;;;;;80.75;26.70;;;2.40;99.90;;;;;;5032049;28;20029;-44
2021/01/18 06:05:58;;;;;;;74.82;27.65;;;2.40;99.90;;;;;;5031568;28;20031;-45
2021/01/18 06:08:25;;;;;;;72.70;26.75;;;2.40;99.90;;;;;;5032167;28;20091;-46
2021/01/18 06:10:56;;;;;;;71.38;25.50;;;2.40;99.90;;;;;;5030804;28;20356;-45
2021/01/18 06:13:32;;;;;;;82.28;27.63;;;2.40;99.90;;;;;;5030875;28;20729;-45
2021/01/18 06:16:01;;;;;;;81.70;28.20;;;2.40;99.90;;;;;;5030133;28;20099;-45
2021/01/18 06:18:29;;;;;;;75.68;28.48;;;2.40;99.90;;;;;;5030133;28;20048;-47
2021/01/18 06:20:59;;;;;;;80.93;27.67;;;2.50;99.90;;;;;;5031669;28;20037;-43
2021/01/18 06:23:25;;;;;;;70.38;27.63;;;2.50;99.90;;;;;;5031488;28;20124;-45
2021/01/18 06:25:52;;;;;;;71.90;25.65;;;2.50;99.90;;;;;;5030904;28;20041;-45
2021/01/18 06:28:35;;;;;;;74.47;27.27;;;2.60;99.90;;;;;;5029835;28;20510;-45
2021/01/18 06:31:07;;;;;;;74.30;26.02;;;2.60;99.90;;;;;;5031024;28;20033;-47
2021/01/18 06:33:37;;;;;;;71.95;25.38;;;2.60;99.90;;;;;;5031854;28;20443;-45
2021/01/18 06:36:23;;;;;;;72.63;26.63;;;2.60;99.90;;;;;;5030964;28;20056;-46
2021/01/18 06:38:58;;;;;;;77.60;27.90;;;2.70;99.90;;;;;;5031055;28;20037;-46
2021/01/18 06:41:44;;;;;;;73.25;25.98;;;2.60;99.90;;;;;;5030866;28;20033;-46
2021/01/18 06:44:10;;;;;;;94.53;27.30;;;2.60;99.90;;;;;;5028602;28;20038;-45
2021/01/18 06:46:37;;;;;;;84.20;26.73;;;2.60;99.90;;;;;;5029949;28;20332;-46
2021/01/18 06:49:04;;;;;;;84.28;23.77;;;2.60;99.90;;;;;;5030634;28;20017;-45
2021/01/18 06:51:31;;;;;;;66.50;23.77;;;2.70;99.90;;;;;;5030850;28;20014;-45
2021/01/18 06:53:58;;;;;;;76.15;24.63;;;2.70;99.90;;;;;;5029794;28;20024;-45
2021/01/18 06:56:29;;;;;;;65.22;21.70;;;2.70;99.90;;;;;;5029429;28;20394;-45
2021/01/18 06:59:38;;;;;;;64.85;20.15;;;2.70;99.90;;;;;;5029858;28;20027;-45
2021/01/18 07:02:13;;;;;;;64.28;21.17;;;2.80;99.90;;;;;;5027640;28;20104;-45
2021/01/18 07:04:45;;;;;;;78.13;20.67;;;2.80;99.90;;;;;;5029227;28;20517;-45
2021/01/18 07:07:27;;;;;;;54.33;18.63;;;2.80;99.90;;;;;;5029935;28;20055;-46
2021/01/18 07:09:58;;;;;;;58.38;18.77;;;2.80;99.90;;;;;;5028039;28;20701;-47
2021/01/18 07:12:25;;;;;;;60.63;18.13;;;2.80;99.90;;;;;;5029076;28;20472;-47
2021/01/18 07:14:57;;;;;;;55.13;18.33;;;2.80;99.90;;;;;;5029367;28;20033;-46
2021/01/18 07:17:30;;;;;;;44.22;16.05;;;2.80;99.90;;;;;;5030220;28;20029;-46
2021/01/18 07:19:58;;;;;;;44.25;16.02;;;2.90;99.90;;;;;;5033418;28;20653;-44
2021/01/18 07:22:34;;;;;;;59.65;20.50;;;2.90;99.90;;;;;;5027909;28;20057;-45
2021/01/18 07:25:02;;;;;;;60.22;16.65;;;2.90;99.90;;;;;;5030276;28;20080;-45
2021/01/18 07:27:39;;;;;;;48.15;15.82;;;2.90;99.90;;;;;;5030508;28;20041;-45
2021/01/18 07:30:06;;;;;;;46.70;14.45;;;2.90;99.90;;;;;;5028789;28;20687;-46
2021/01/18 07:32:31;;;;;;;51.13;15.40;;;2.90;99.90;;;;;;5028990;28;20124;-45
2021/01/18 07:34:57;;;;;;;49.15;14.77;;;2.90;99.90;;;;;;5028115;28;20423;-44
2021/01/18 07:37:25;;;;;;;51.47;13.48;;;3.00;99.90;;;;;;5028866;28;20033;-44
2021/01/18 07:39:51;;;;;;;52.55;13.88;;;3.00;99.90;;;;;;5028251;28;20029;-48
2021/01/18 07:42:37;;;;;;;39.15;12.30;;;3.00;99.90;;;;;;5028896;28;20415;-46
2021/01/18 07:45:12;;;;;;;39.53;11.65;;;3.00;99.90;;;;;;5026988;28;20029;-45
2021/01/18 07:47:56;;;;;;;33.33;11.77;;;3.00;99.90;;;;;;5028714;28;20087;-46
2021/01/18 07:50:44;;;;;;;31.90;11.73;;;3.10;99.90;;;;;;5027163;28;20052;-47
2021/01/18 07:53:11;;;;;;;32.60;10.27;;;3.10;99.90;;;;;;5028748;28;20062;-46
2021/01/18 07:55:38;;;;;;;42.65;12.57;;;3.10;99.90;;;;;;5028121;28;20394;-44
2021/01/18 07:58:17;;;;;;;48.95;13.45;;;3.10;99.90;;;;;;5027430;28;20434;-46
2021/01/18 08:00:44;;;;;;;37.83;12.65;;;3.10;99.90;;;;;;5027339;28;20036;-45
2021/01/18 08:03:10;;;;;;;44.97;13.18;;;3.10;99.90;;;;;;5028666;28;20415;-45
2021/01/18 08:05:37;;;;;;;39.40;12.73;;;3.20;99.90;;;;;;5027092;28;20026;-44
2021/01/18 08:08:17;;;;;;;33.08;12.52;;;3.10;99.90;;;;;;5027810;28;20107;-45
2021/01/18 08:11:19;;;;;;;32.67;13.02;;;3.20;99.90;;;;;;5027931;28;20034;-48
2021/01/18 08:13:57;;;;;;;39.70;13.82;;;3.20;99.90;;;;;;5028005;28;20025;-46
2021/01/18 08:16:24;;;;;;;42.72;14.65;;;3.20;99.90;;;;;;5027310;28;20029;-44
2021/01/18 08:19:03;;;;;;;45.83;14.30;;;3.20;99.90;;;;;;5027380;28;20067;-45
2021/01/18 08:21:35;;;;;;;35.65;12.43;;;3.20;99.90;;;;;;5028581;28;20079;-47
2021/01/18 08:24:05;;;;;;;38.03;13.82;;;3.20;99.90;;;;;;5028152;28;20033;-45
2021/01/18 08:26:53;;;;;;;40.45;12.52;;;3.20;99.90;;;;;;5026962;28;20029;-47
2021/01/18 08:29:39;;;;;;;45.08;14.63;;;3.20;99.90;;;;;;5027852;28;20049;-44
2021/01/18 08:32:22;;;;;;;32.38;10.82;;;3.30;99.90;;;;;;5028334;28;20052;-45
2021/01/18 08:34:51;;;;;;;42.20;13.57;;;3.30;99.90;;;;;;5027417;28;20129;-46
2021/01/18 08:37:16;;;;;;;37.10;13.50;;;3.30;99.90;;;;;;5028133;28;20033;-44
2021/01/18 08:39:59;;;;;;;40.38;13.02;;;3.30;99.90;;;;;;5027649;28;20025;-45
2021/01/18 08:42:33;;;;;;;30.05;12.88;;;3.40;99.90;;;;;;5028210;28;20104;-46
2021/01/18 08:45:10;;;;;;;37.08;13.07;;;3.40;99.90;;;;;;5027187;28;20037;-46
2021/01/18 08:47:41;;;;;;;30.52;12.43;;;3.40;99.90;;;;;;5028027;28;20109;-45
2021/01/18 08:50:25;;;;;;;37.78;13.32;;;3.50;99.90;;;;;;5028451;28;20061;-45
2021/01/18 08:52:53;;;;;;;39.38;14.65;;;3.50;99.90;;;;;;5032146;28;20033;-45
2021/01/18 08:55:28;;;;;;;39.47;11.63;;;3.50;99.90;;;;;;5030769;28;20021;-44
2021/01/18 08:58:04;;;;;;;26.67;10.27;;;3.50;99.90;;;;;;5030019;28;20033;-46
2021/01/18 09:00:46;;;;;;;35.50;11.13;;;3.50;99.90;;;;;;5031489;28;20056;-45
2021/01/18 09:03:19;;;;;;;30.10;10.55;;;3.50;99.90;;;;;;5030573;28;20056;-45
2021/01/18 09:05:48;;;;;;;29.55;9.27;;;3.50;99.90;;;;;;5031010;28;20053;-47
2021/01/18 09:08:17;;;;;;;23.33;8.98;;;3.60;99.90;;;;;;5031507;28;20108;-47
2021/01/18 09:10:58;;;;;;;33.95;9.68;;;3.70;99.90;;;;;;5030091;28;20030;-45
2021/01/18 09:13:26;;;;;;;24.08;9.43;;;3.80;99.90;;;;;;5030164;28;20462;-47
2021/01/18 09:15:53;;;;;;;19.27;8.95;;;3.90;99.90;;;;;;5031051;28;20030;-45
2021/01/18 09:18:19;;;;;;;23.15;8.50;;;4.00;99.90;;;;;;5031295;28;20483;-45
2021/01/18 09:20:45;;;;;;;23.27;9.60;;;4.00;99.90;;;;;;5030662;28;20037;-45
2021/01/18 09:23:12;;;;;;;22.48;8.35;;;4.20;99.90;;;;;;5031243;28;20391;-44
2021/01/18 09:25:39;;;;;;;29.65;8.80;;;4.20;99.90;;;;;;5030717;28;20041;-47
2021/01/18 09:28:15;;;;;;;28.00;8.10;;;4.20;99.90;;;;;;5031208;28;20100;-44
2021/01/18 09:30:43;;;;;;;26.08;10.00;;;4.10;99.90;;;;;;5031263;28;20105;-48
2021/01/18 09:33:11;;;;;;;19.50;6.85;;;4.20;99.90;;;;;;5031359;28;20060;-45
2021/01/18 09:35:42;;;;;;;20.13;7.70;;;4.30;99.90;;;;;;5030818;28;20026;-45
2021/01/18 09:38:09;;;;;;;20.38;10.25;;;4.20;99.90;;;;;;5031328;28;20041;-45
2021/01/18 09:40:38;;;;;;;28.58;8.95;;;4.30;99.90;;;;;;5031286;28;20025;-45
2021/01/18 09:43:05;;;;;;;23.45;8.20;;;4.40;99.90;;;;;;5030587;28;20025;-47
2021/01/18 09:45:31;;;;;;;18.13;8.02;;;4.50;99.90;;;;;;5030225;28;20033;-46
2021/01/18 09:48:07;;;;;;;20.58;7.40;;;4.70;99.90;;;;;;5030855;28;20157;-46
2021/01/18 09:50:37;;;;;;;18.75;8.18;;;4.80;99.90;;;;;;5029079;28;20025;-46
2021/01/18 09:53:08;;;;;;;19.13;8.10;;;5.00;99.90;;;;;;5025335;28;20040;-44
2021/01/18 09:55:48;;;;;;;22.13;8.13;;;5.10;99.90;;;;;;5024397;28;20055;-43
2021/01/18 09:58:31;;;;;;;18.25;9.10;;;5.00;99.90;;;;;;5027470;28;20125;-46
2021/01/18 10:00:59;;;;;;;17.58;7.70;;;4.90;99.90;;;;;;5028493;28;20021;-44
2021/01/18 10:03:34;;;;;;;18.58;6.97;;;4.90;99.90;;;;;;5029853;28;20438;-46
2021/01/18 10:06:09;;;;;;;14.35;6.78;;;5.10;99.90;;;;;;5029860;28;20033;-45
2021/01/18 10:08:37;;;;;;;16.02;7.22;;;5.10;99.90;;;;;;5017303;28;20056;-45
2021/01/18 10:11:04;;;;;;;14.70;7.35;;;5.10;99.90;;;;;;5029060;28;20026;-44
2021/01/18 10:13:29;;;;;;;15.75;6.82;;;5.20;99.90;;;;;;5030455;28;20462;-46
2021/01/18 10:16:06;;;;;;;14.30;6.80;;;5.20;99.90;;;;;;5029142;28;20204;-47
2021/01/18 10:18:32;;;;;;;22.52;7.55;;;5.40;99.90;;;;;;5037433;28;20581;-43
2021/01/18 10:21:00;;;;;;;22.55;7.25;;;5.40;99.90;;;;;;5029735;28;20121;-48
2021/01/18 10:23:37;;;;;;;18.70;6.50;;;5.40;99.90;;;;;;5028930;28;20047;-48
2021/01/18 10:26:34;;;;;;;27.55;7.57;;;5.60;99.90;;;;;;5029176;28;20022;-46
2021/01/18 10:29:02;;;;;;;15.00;6.70;;;5.50;99.90;;;;;;5027282;28;20030;-46
2021/01/18 10:31:30;;;;;;;16.02;7.55;;;5.50;99.90;;;;;;5029767;28;20017;-45
2021/01/18 10:34:15;;;;;;;18.77;7.88;;;5.40;99.90;;;;;;5028093;28;20508;-46
2021/01/18 10:36:45;;;;;;;22.60;7.38;;;5.30;99.90;;;;;;5028756;28;20051;-46
2021/01/18 10:39:28;;;;;;;13.93;7.53;;;5.20;99.90;;;;;;5028911;28;20037;-46
2021/01/18 10:42:02;;;;;;;12.90;8.20;;;5.10;99.90;;;;;;5028421;28;20388;-46
2021/01/18 10:44:27;;;;;;;18.23;7.10;;;5.20;99.90;;;;;;5030516;28;20025;-46
2021/01/18 10:46:53;;;;;;;22.02;8.20;;;5.20;99.90;;;;;;5027914;28;20041;-46
2021/01/18 10:49:26;;;;;;;16.08;7.43;;;5.10;99.90;;;;;;5030632;28;20029;-45
2021/01/18 10:52:03;;;;;;;23.92;8.48;;;5.30;99.90;;;;;;5030714;28;20061;-46
2021/01/18 10:54:28;;;;;;;27.10;9.00;;;5.40;99.90;;;;;;5030218;28;20144;-44
2021/01/18 10:56:57;;;;;;;21.92;8.30;;;5.40;99.90;;;;;;5027399;28;20124;-44
2021/01/18 10:59:23;;;;;;;22.17;8.50;;;5.40;99.90;;;;;;5030275;28;20514;-45
2021/01/18 11:02:06;;;;;;;24.60;8.00;;;5.40;99.90;;;;;;5030749;28;20132;-46
2021/01/18 11:04:34;;;;;;;16.83;8.68;;;5.50;99.90;;;;;;5029707;28;20372;-44
2021/01/18 11:07:00;;;;;;;18.13;8.85;;;5.50;99.90;;;;;;5029163;28;20471;-47
2021/01/18 11:09:30;;;;;;;20.90;8.82;;;5.60;99.90;;;;;;5028765;28;20026;-45
2021/01/18 11:11:58;;;;;;;20.70;8.57;;;5.60;99.90;;;;;;5030505;28;20078;-44
2021/01/18 11:14:24;;;;;;;24.92;8.80;;;5.50;99.90;;;;;;5028862;28;20599;-47
2021/01/18 11:17:07;;;;;;;18.55;8.30;;;5.50;99.90;;;;;;5030658;28;20028;-43
2021/01/18 11:19:33;;;;;;;22.30;8.23;;;5.40;99.90;;;;;;5030465;28;20036;-45
2021/01/18 11:21:58;;;;;;;18.35;8.57;;;5.40;99.90;;;;;;5030338;28;20022;-45
2021/01/18 11:24:24;;;;;;;20.98;8.23;;;5.30;99.90;;;;;;5030121;28;20156;-47
2021/01/18 11:26:51;;;;;;;19.90;8.68;;;5.30;99.90;;;;;;5029940;28;20029;-46
2021/01/18 11:29:17;;;;;;;21.95;9.90;;;5.30;99.90;;;;;;5030298;28;20026;-45
2021/01/18 11:31:43;;;;;;;18.75;8.93;;;5.30;99.90;;;;;;5029933;28;20018;-45
2021/01/18 11:34:09;;;;;;;19.75;9.23;;;5.30;99.90;;;;;;5029011;28;20033;-46
2021/01/18 11:36:35;;;;;;;20.58;10.02;;;5.30;99.90;;;;;;5028018;28;20018;-46
2021/01/18 11:39:01;;;;;;;26.60;9.00;;;5.30;99.90;;;;;;5027481;28;20399;-45
2021/01/18 11:41:27;;;;;;;21.88;9.57;;;5.30;99.90;;;;;;5028894;28;20160;-47
2021/01/18 11:43:53;;;;;;;20.15;9.38;;;5.30;99.90;;;;;;5028039;28;20021;-47
2021/01/18 11:46:18;;;;;;;25.67;10.77;;;5.40;99.90;;;;;;5029306;28;20025;-45
2021/01/18 11:48:45;;;;;;;22.15;10.65;;;5.30;99.90;;;;;;5028554;28;20029;-46
2021/01/18 11:51:10;;;;;;;31.83;12.30;;;5.30;99.90;;;;;;5029820;28;20075;-46
2021/01/18 11:53:36;;;;;;;30.80;11.10;;;5.10;99.90;;;;;;5029211;28;20025;-45
2021/01/18 11:56:03;;;;;;;26.60;11.52;;;5.10;99.90;;;;;;5026476;28;20108;-45
2021/01/18 11:58:28;;;;;;;30.35;12.30;;;5.10;99.90;;;;;;5027886;28;20482;-46
2021/01/18 12:00:54;;;;;;;24.58;12.52;;;5.10;99.90;;;;;;5028631;28;20037;-44
2021/01/18 12:03:19;;;;;;;30.80;12.25;;;5.10;99.90;;;;;;5029480;28;20364;-45
2021/01/18 12:05:45;;;;;;;28.50;12.50;;;5.20;99.90;;;;;;5029068;28;20039;-45
2021/01/18 12:08:10;;;;;;;35.72;13.73;;;5.10;99.90;;;;;;5028520;28;20033;-45
2021/01/18 12:10:36;;;;;;;22.05;11.90;;;5.10;99.90;;;;;;5028609;28;20036;-45
2021/01/18 12:13:05;;;;;;;35.25;12.73;;;5.10;99.90;;;;;;5028650;28;20096;-45
2021/01/18 12:15:33;;;;;;;32.88;14.75;;;5.20;99.90;;;;;;5027028;28;20352;-45
2021/01/18 12:17:59;;;;;;;30.50;14.43;;;5.20;99.90;;;;;;5028026;28;20839;-44
2021/01/18 12:20:24;;;;;;;34.55;14.10;;;5.10;99.90;;;;;;5027627;28;20109;-44
2021/01/18 12:22:56;;;;;;;32.63;14.55;;;5.20;99.90;;;;;;5026526;28;20029;-45
2021/01/18 12:25:25;;;;;;;28.58;14.65;;;5.30;99.90;;;;;;5028282;28;20057;-45
2021/01/18 12:27:54;;;;;;;34.42;15.80;;;5.30;99.90;;;;;;5031436;28;20035;-45
2021/01/18 12:30:21;;;;;;;29.25;15.63;;;5.30;99.90;;;;;;5031266;28;20025;-43
2021/01/18 12:32:48;;;;;;;41.20;17.38;;;5.30;99.90;;;;;;5031075;28;20059;-46
2021/01/18 12:35:14;;;;;;;43.78;18.48;;;5.20;99.90;;;;;;5030595;28;20033;-43
2021/01/18 12:37:41;;;;;;;41.03;19.52;;;5.10;99.90;;;;;;5031125;28;20021;-45
2021/01/18 12:40:08;;;;;;;35.90;17.80;;;5.00;99.90;;;;;;5031914;28;20033;-46
2021/01/18 12:42:40;;;;;;;37.47;19.30;;;4.90;99.90;;;;;;5033300;28;20108;-47
2021/01/18 12:45:07;;;;;;;43.72;19.45;;;4.90;99.90;;;;;;5030288;28;20025;-44
2021/01/18 12:47:32;;;;;;;47.38;20.10;;;4.90;99.90;;;;;;5032974;28;20021;-45
2021/01/18 12:49:58;;;;;;;48.92;18.63;;;4.90;99.90;;;;;;5032817;28;20094;-45
2021/01/18 12:52:23;;;;;;;45.08;22.15;;;4.90;99.90;;;;;;5032544;28;20048;-44
2021/01/18 12:54:49;;;;;;;46.42;20.92;;;4.90;99.90;;;;;;5032304;28;20034;-45
2021/01/18 12:57:14;;;;;;;45.33;20.45;;;4.90;99.90;;;;;;5032690;28;20021;-45